CheckWX is a tool to help pilots better visualize weather data.  It is not intended as a substitute for an official pre-flight weather briefing.

00:45:02 UTC

KDVT TAF
Phoenix Deer Valley Airport
Phoenix, Arizona, USA
KDVT 242339Z 2500/2524 VRB05KT P6SM SKC FM251600 03012G20KT P6SM SKC

Feb-25@
00:00 UTC

Feb-25 @ 00:00 UTC

Feb-25@
16:00 UTC

Feb-25 @ 16:00 UTC

KDVT 242339Z 2500/2524 VRB05KT P6SM SKC
Wind
  • Variable at 5 KTS
Cloud Levels
  • Clear skies

Feb-25@
16:00 UTC

Feb-25 @ 16:00 UTC

Feb-26@
00:00 UTC

Feb-26 @ 00:00 UTC

FM251600 03012G20KT P6SM SKC

From

From Standard forecast or significant change

Wind
  • 030° at 12 KTS
  • {Gusting to 20 KTS
Cloud Levels
  • Clear skies